Terminal Aerodrome Forecast
Issued by NWS

Home | Current Version | Previous Version | Text Only | Print | Product List | Glossary On
Versions: 1 2 3 4 5 6 7 8 9 10 11 12 13 14 15
000
FTUS44 KBMX 290520
TAFANB
TAF
KANB 290520Z 2906/3006 00000KT P6SM SKC
     FM290900 00000KT 3SM BR SKC
     FM291400 08004KT P6SM SKC=

USA.gov is the U.S. government's official web portal to all federal, state and local government web resources and services.